Norfolk, Virginia
Traffic Map
Current Weather Conditions
Norfolk, Virginia
Few Clouds
Few Clouds
78°
Feels Like: 80°
Wind Chill: 78° Ceiling: Unl
Heat Index: 80° Visibility: 10mi
Dew Point: 68° Wind: 10mph
Humidity: 71% Direction: 210° (SSW)
Pressure: 30.02in Gusts: 0mph
Raw Report DataKORF 280251Z 21009KT 10SM FEW120 26/20 A3002 RMK AO2 SLP164 T02560200 53023
Traffic Incident Summary
Active as of:
Severity:
Category:
InformationThere was an issue retrieving the traffic information for this location. Please try a different location or try again shortly.
Advertisements